sensor_id;sensor_type;location;lat;lon;timestamp;P1;durP1;ratioP1;P2;durP2;ratioP2
42682;SDS011;28293;50.930;3.464;2022-11-24T00:00:25;26.00;;;9.68;;
42682;SDS011;28293;50.930;3.464;2022-11-24T00:02:50;25.83;;;10.55;;
42682;SDS011;28293;50.930;3.464;2022-11-24T00:05:16;33.22;;;12.05;;
42682;SDS011;28293;50.930;3.464;2022-11-24T00:07:41;29.63;;;11.40;;
42682;SDS011;28293;50.930;3.464;2022-11-24T00:10:07;25.73;;;11.40;;
42682;SDS011;28293;50.930;3.464;2022-11-24T00:12:33;23.50;;;8.60;;
42682;SDS011;28293;50.930;3.464;2022-11-24T00:14:59;24.45;;;8.48;;
42682;SDS011;28293;50.930;3.464;2022-11-24T00:17:24;23.15;;;10.35;;
42682;SDS011;28293;50.930;3.464;2022-11-24T00:19:50;28.83;;;9.50;;
42682;SDS011;28293;50.930;3.464;2022-11-24T00:22:16;28.48;;;10.43;;
42682;SDS011;28293;50.930;3.464;2022-11-24T00:24:41;33.03;;;11.88;;
42682;SDS011;28293;50.930;3.464;2022-11-24T00:27:07;31.80;;;11.20;;
42682;SDS011;28293;50.930;3.464;2022-11-24T00:29:32;27.35;;;11.50;;
42682;SDS011;28293;50.930;3.464;2022-11-24T00:31:58;19.67;;;5.95;;
42682;SDS011;28293;50.930;3.464;2022-11-24T00:34:25;20.67;;;5.88;;
42682;SDS011;28293;50.930;3.464;2022-11-24T00:36:51;23.02;;;5.45;;
42682;SDS011;28293;50.930;3.464;2022-11-24T00:39:17;25.67;;;4.97;;
42682;SDS011;28293;50.930;3.464;2022-11-24T00:41:42;18.33;;;5.25;;
42682;SDS011;28293;50.930;3.464;2022-11-24T00:44:08;26.55;;;5.07;;
42682;SDS011;28293;50.930;3.464;2022-11-24T00:46:34;25.35;;;4.90;;
42682;SDS011;28293;50.930;3.464;2022-11-24T00:48:59;19.05;;;5.15;;
42682;SDS011;28293;50.930;3.464;2022-11-24T00:51:26;20.55;;;4.88;;
42682;SDS011;28293;50.930;3.464;2022-11-24T00:53:54;22.98;;;4.90;;
42682;SDS011;28293;50.930;3.464;2022-11-24T00:56:23;27.85;;;6.07;;
42682;SDS011;28293;50.930;3.464;2022-11-24T00:58:49;22.23;;;5.07;;
42682;SDS011;28293;50.930;3.464;2022-11-24T01:01:16;24.85;;;5.05;;
42682;SDS011;28293;50.930;3.464;2022-11-24T01:03:44;21.58;;;5.07;;
42682;SDS011;28293;50.930;3.464;2022-11-24T01:06:12;33.17;;;5.50;;
42682;SDS011;28293;50.930;3.464;2022-11-24T01:08:39;24.83;;;5.45;;
42682;SDS011;28293;50.930;3.464;2022-11-24T01:11:13;22.92;;;4.47;;
42682;SDS011;28293;50.930;3.464;2022-11-24T01:13:45;21.23;;;5.40;;
42682;SDS011;28293;50.930;3.464;2022-11-24T01:16:22;30.52;;;5.43;;
42682;SDS011;28293;50.930;3.464;2022-11-24T01:18:59;24.58;;;5.50;;
42682;SDS011;28293;50.930;3.464;2022-11-24T01:21:25;23.65;;;5.82;;
42682;SDS011;28293;50.930;3.464;2022-11-24T01:23:51;29.15;;;5.28;;
42682;SDS011;28293;50.930;3.464;2022-11-24T01:26:17;28.30;;;5.47;;
42682;SDS011;28293;50.930;3.464;2022-11-24T01:28:44;26.95;;;6.10;;
42682;SDS011;28293;50.930;3.464;2022-11-24T01:31:10;32.45;;;6.13;;
42682;SDS011;28293;50.930;3.464;2022-11-24T01:33:37;26.73;;;6.70;;
42682;SDS011;28293;50.930;3.464;2022-11-24T01:36:03;23.10;;;6.65;;
42682;SDS011;28293;50.930;3.464;2022-11-24T01:38:30;25.75;;;6.82;;
42682;SDS011;28293;50.930;3.464;2022-11-24T01:41:03;28.10;;;5.85;;
42682;SDS011;28293;50.930;3.464;2022-11-24T01:45:56;9.55;;;2.47;;
42682;SDS011;28293;50.930;3.464;2022-11-24T01:48:37;10.00;;;2.28;;
42682;SDS011;28293;50.930;3.464;2022-11-24T01:51:18;12.82;;;2.63;;
42682;SDS011;28293;50.930;3.464;2022-11-24T01:53:49;10.90;;;2.20;;
42682;SDS011;28293;50.930;3.464;2022-11-24T01:56:20;5.65;;;1.60;;
42682;SDS011;28293;50.930;3.464;2022-11-24T01:58:46;4.97;;;1.60;;
42682;SDS011;28293;50.930;3.464;2022-11-24T02:01:14;5.68;;;1.50;;
42682;SDS011;28293;50.930;3.464;2022-11-24T02:03:40;8.88;;;2.15;;
42682;SDS011;28293;50.930;3.464;2022-11-24T02:06:10;7.53;;;1.65;;
42682;SDS011;28293;50.930;3.464;2022-11-24T02:11:18;5.30;;;1.77;;
42682;SDS011;28293;50.930;3.464;2022-11-24T02:13:47;5.85;;;1.83;;
42682;SDS011;28293;50.930;3.464;2022-11-24T02:16:15;5.13;;;1.52;;
42682;SDS011;28293;50.930;3.464;2022-11-24T02:18:41;5.32;;;1.73;;
42682;SDS011;28293;50.930;3.464;2022-11-24T02:21:09;3.70;;;1.58;;
42682;SDS011;28293;50.930;3.464;2022-11-24T02:23:53;5.97;;;2.10;;
42682;SDS011;28293;50.930;3.464;2022-11-24T02:26:45;7.95;;;1.45;;
42682;SDS011;28293;50.930;3.464;2022-11-24T02:29:12;5.03;;;1.55;;
42682;SDS011;28293;50.930;3.464;2022-11-24T02:31:39;4.60;;;1.70;;
42682;SDS011;28293;50.930;3.464;2022-11-24T02:34:08;6.40;;;1.65;;
42682;SDS011;28293;50.930;3.464;2022-11-24T02:36:34;5.50;;;1.65;;
42682;SDS011;28293;50.930;3.464;2022-11-24T02:38:59;4.05;;;1.50;;
42682;SDS011;28293;50.930;3.464;2022-11-24T02:41:25;6.88;;;1.80;;
42682;SDS011;28293;50.930;3.464;2022-11-24T02:43:56;6.70;;;2.00;;
42682;SDS011;28293;50.930;3.464;2022-11-24T02:46:25;8.35;;;1.70;;
42682;SDS011;28293;50.930;3.464;2022-11-24T02:48:51;5.90;;;1.63;;
42682;SDS011;28293;50.930;3.464;2022-11-24T02:51:17;6.55;;;1.88;;
42682;SDS011;28293;50.930;3.464;2022-11-24T02:53:43;4.97;;;1.90;;
42682;SDS011;28293;50.930;3.464;2022-11-24T02:56:09;7.20;;;1.80;;
42682;SDS011;28293;50.930;3.464;2022-11-24T02:58:34;6.28;;;2.20;;
42682;SDS011;28293;50.930;3.464;2022-11-24T03:01:00;6.80;;;1.92;;
42682;SDS011;28293;50.930;3.464;2022-11-24T03:03:26;3.13;;;1.45;;
42682;SDS011;28293;50.930;3.464;2022-11-24T03:05:52;6.15;;;1.90;;
42682;SDS011;28293;50.930;3.464;2022-11-24T03:08:18;4.65;;;1.80;;
42682;SDS011;28293;50.930;3.464;2022-11-24T03:10:44;4.82;;;1.40;;
42682;SDS011;28293;50.930;3.464;2022-11-24T03:13:10;8.15;;;2.03;;
42682;SDS011;28293;50.930;3.464;2022-11-24T03:15:35;5.75;;;1.42;;
42682;SDS011;28293;50.930;3.464;2022-11-24T03:18:01;7.05;;;1.83;;
42682;SDS011;28293;50.930;3.464;2022-11-24T03:20:27;4.55;;;1.60;;
42682;SDS011;28293;50.930;3.464;2022-11-24T03:22:53;6.38;;;1.65;;
42682;SDS011;28293;50.930;3.464;2022-11-24T03:25:18;6.72;;;1.40;;
42682;SDS011;28293;50.930;3.464;2022-11-24T03:27:44;7.50;;;2.10;;
42682;SDS011;28293;50.930;3.464;2022-11-24T03:30:10;11.02;;;2.45;;
42682;SDS011;28293;50.930;3.464;2022-11-24T03:32:36;8.15;;;1.88;;
42682;SDS011;28293;50.930;3.464;2022-11-24T03:35:02;6.88;;;2.13;;
42682;SDS011;28293;50.930;3.464;2022-11-24T03:37:28;8.52;;;1.90;;
42682;SDS011;28293;50.930;3.464;2022-11-24T03:39:54;8.55;;;1.98;;
42682;SDS011;28293;50.930;3.464;2022-11-24T03:42:20;14.98;;;2.42;;
42682;SDS011;28293;50.930;3.464;2022-11-24T03:44:46;7.95;;;1.80;;
42682;SDS011;28293;50.930;3.464;2022-11-24T03:47:12;9.88;;;2.25;;
42682;SDS011;28293;50.930;3.464;2022-11-24T03:49:38;10.23;;;1.92;;
42682;SDS011;28293;50.930;3.464;2022-11-24T03:52:05;5.55;;;1.90;;
42682;SDS011;28293;50.930;3.464;2022-11-24T03:54:31;9.10;;;2.25;;
42682;SDS011;28293;50.930;3.464;2022-11-24T03:56:56;9.82;;;1.90;;
42682;SDS011;28293;50.930;3.464;2022-11-24T03:59:22;6.95;;;2.03;;
42682;SDS011;28293;50.930;3.464;2022-11-24T04:01:48;11.07;;;2.70;;
42682;SDS011;28293;50.930;3.464;2022-11-24T04:04:13;6.18;;;2.50;;
42682;SDS011;28293;50.930;3.464;2022-11-24T04:06:39;10.85;;;2.60;;
42682;SDS011;28293;50.930;3.464;2022-11-24T04:09:05;9.98;;;2.40;;
42682;SDS011;28293;50.930;3.464;2022-11-24T04:11:31;11.20;;;2.10;;
42682;SDS011;28293;50.930;3.464;2022-11-24T04:14:15;10.13;;;2.17;;
42682;SDS011;28293;50.930;3.464;2022-11-24T04:16:42;8.18;;;2.58;;
42682;SDS011;28293;50.930;3.464;2022-11-24T04:19:08;9.32;;;2.60;;
42682;SDS011;28293;50.930;3.464;2022-11-24T04:21:33;11.48;;;2.65;;
42682;SDS011;28293;50.930;3.464;2022-11-24T04:23:59;6.93;;;2.47;;
42682;SDS011;28293;50.930;3.464;2022-11-24T04:26:25;7.72;;;2.00;;
42682;SDS011;28293;50.930;3.464;2022-11-24T04:28:50;8.65;;;2.40;;
42682;SDS011;28293;50.930;3.464;2022-11-24T04:31:16;10.00;;;3.17;;
42682;SDS011;28293;50.930;3.464;2022-11-24T04:33:42;9.60;;;2.10;;
42682;SDS011;28293;50.930;3.464;2022-11-24T04:36:08;11.05;;;2.60;;
42682;SDS011;28293;50.930;3.464;2022-11-24T04:38:34;9.45;;;2.35;;
42682;SDS011;28293;50.930;3.464;2022-11-24T04:41:00;13.13;;;2.58;;
42682;SDS011;28293;50.930;3.464;2022-11-24T04:43:27;10.55;;;2.55;;
42682;SDS011;28293;50.930;3.464;2022-11-24T04:45:53;10.00;;;2.63;;
42682;SDS011;28293;50.930;3.464;2022-11-24T04:48:19;9.68;;;2.33;;
42682;SDS011;28293;50.930;3.464;2022-11-24T04:50:45;8.05;;;2.10;;
42682;SDS011;28293;50.930;3.464;2022-11-24T04:53:10;10.73;;;2.35;;
42682;SDS011;28293;50.930;3.464;2022-11-24T04:55:37;8.85;;;2.58;;
42682;SDS011;28293;50.930;3.464;2022-11-24T04:58:05;8.57;;;2.40;;
42682;SDS011;28293;50.930;3.464;2022-11-24T05:00:33;6.47;;;2.20;;
42682;SDS011;28293;50.930;3.464;2022-11-24T05:02:59;7.60;;;2.22;;
42682;SDS011;28293;50.930;3.464;2022-11-24T05:05:25;14.30;;;2.58;;
42682;SDS011;28293;50.930;3.464;2022-11-24T05:07:50;12.80;;;2.78;;
42682;SDS011;28293;50.930;3.464;2022-11-24T05:10:16;11.52;;;2.70;;
42682;SDS011;28293;50.930;3.464;2022-11-24T05:13:00;14.07;;;2.55;;
42682;SDS011;28293;50.930;3.464;2022-11-24T05:15:27;10.60;;;3.35;;
42682;SDS011;28293;50.930;3.464;2022-11-24T05:17:53;13.40;;;3.58;;
42682;SDS011;28293;50.930;3.464;2022-11-24T05:20:20;12.73;;;3.20;;
42682;SDS011;28293;50.930;3.464;2022-11-24T05:22:45;12.20;;;3.15;;
42682;SDS011;28293;50.930;3.464;2022-11-24T05:25:11;16.23;;;4.13;;
42682;SDS011;28293;50.930;3.464;2022-11-24T05:27:38;11.32;;;3.78;;
42682;SDS011;28293;50.930;3.464;2022-11-24T05:30:04;12.50;;;3.65;;
42682;SDS011;28293;50.930;3.464;2022-11-24T05:32:30;10.30;;;3.45;;
42682;SDS011;28293;50.930;3.464;2022-11-24T05:34:56;12.07;;;2.67;;
42682;SDS011;28293;50.930;3.464;2022-11-24T05:37:24;12.50;;;3.45;;
42682;SDS011;28293;50.930;3.464;2022-11-24T05:39:52;18.23;;;3.60;;
42682;SDS011;28293;50.930;3.464;2022-11-24T05:42:18;12.50;;;3.45;;
42682;SDS011;28293;50.930;3.464;2022-11-24T05:45:03;13.63;;;3.55;;
42682;SDS011;28293;50.930;3.464;2022-11-24T05:47:29;12.57;;;2.65;;
42682;SDS011;28293;50.930;3.464;2022-11-24T05:49:55;14.82;;;2.72;;
42682;SDS011;28293;50.930;3.464;2022-11-24T05:52:21;13.07;;;2.95;;
42682;SDS011;28293;50.930;3.464;2022-11-24T05:54:47;16.65;;;3.30;;
42682;SDS011;28293;50.930;3.464;2022-11-24T05:57:12;11.57;;;3.20;;
42682;SDS011;28293;50.930;3.464;2022-11-24T05:59:38;12.40;;;3.55;;
42682;SDS011;28293;50.930;3.464;2022-11-24T06:02:04;17.35;;;3.63;;
42682;SDS011;28293;50.930;3.464;2022-11-24T06:04:30;11.52;;;3.60;;
42682;SDS011;28293;50.930;3.464;2022-11-24T06:06:55;17.77;;;3.83;;
42682;SDS011;28293;50.930;3.464;2022-11-24T06:09:21;14.63;;;3.75;;
42682;SDS011;28293;50.930;3.464;2022-11-24T06:11:47;14.10;;;4.32;;
42682;SDS011;28293;50.930;3.464;2022-11-24T06:14:13;16.63;;;3.50;;
42682;SDS011;28293;50.930;3.464;2022-11-24T06:16:38;13.95;;;4.13;;
42682;SDS011;28293;50.930;3.464;2022-11-24T06:19:04;17.00;;;3.42;;
42682;SDS011;28293;50.930;3.464;2022-11-24T06:21:30;14.35;;;3.85;;
42682;SDS011;28293;50.930;3.464;2022-11-24T06:23:55;15.02;;;4.05;;
42682;SDS011;28293;50.930;3.464;2022-11-24T06:26:21;12.68;;;3.78;;
42682;SDS011;28293;50.930;3.464;2022-11-24T06:28:47;14.98;;;3.90;;
42682;SDS011;28293;50.930;3.464;2022-11-24T06:31:13;13.40;;;3.53;;
42682;SDS011;28293;50.930;3.464;2022-11-24T06:33:38;16.27;;;4.03;;
42682;SDS011;28293;50.930;3.464;2022-11-24T06:36:05;15.02;;;3.40;;
42682;SDS011;28293;50.930;3.464;2022-11-24T06:38:34;13.60;;;3.40;;
42682;SDS011;28293;50.930;3.464;2022-11-24T06:41:01;13.95;;;3.88;;
42682;SDS011;28293;50.930;3.464;2022-11-24T06:43:31;14.30;;;3.97;;
42682;SDS011;28293;50.930;3.464;2022-11-24T06:45:58;13.95;;;4.45;;
42682;SDS011;28293;50.930;3.464;2022-11-24T06:48:24;15.70;;;3.42;;
42682;SDS011;28293;50.930;3.464;2022-11-24T06:50:50;16.02;;;3.38;;
42682;SDS011;28293;50.930;3.464;2022-11-24T06:53:17;18.73;;;3.67;;
42682;SDS011;28293;50.930;3.464;2022-11-24T06:55:43;16.08;;;4.50;;
42682;SDS011;28293;50.930;3.464;2022-11-24T06:58:09;13.90;;;4.15;;
42682;SDS011;28293;50.930;3.464;2022-11-24T07:00:35;16.00;;;4.22;;
42682;SDS011;28293;50.930;3.464;2022-11-24T07:03:01;13.52;;;4.03;;
42682;SDS011;28293;50.930;3.464;2022-11-24T07:05:27;18.65;;;4.53;;
42682;SDS011;28293;50.930;3.464;2022-11-24T07:07:53;16.33;;;4.15;;
42682;SDS011;28293;50.930;3.464;2022-11-24T07:10:19;14.40;;;3.90;;
42682;SDS011;28293;50.930;3.464;2022-11-24T07:12:45;16.88;;;4.55;;
42682;SDS011;28293;50.930;3.464;2022-11-24T07:15:10;20.55;;;5.25;;
42682;SDS011;28293;50.930;3.464;2022-11-24T07:17:36;18.05;;;4.70;;
42682;SDS011;28293;50.930;3.464;2022-11-24T07:20:03;14.85;;;4.35;;
42682;SDS011;28293;50.930;3.464;2022-11-24T07:22:30;13.00;;;4.40;;
42682;SDS011;28293;50.930;3.464;2022-11-24T07:24:56;18.63;;;4.90;;
42682;SDS011;28293;50.930;3.464;2022-11-24T07:27:21;16.25;;;4.28;;
42682;SDS011;28293;50.930;3.464;2022-11-24T07:29:47;17.95;;;4.53;;
42682;SDS011;28293;50.930;3.464;2022-11-24T07:32:12;16.15;;;5.35;;
42682;SDS011;28293;50.930;3.464;2022-11-24T07:34:38;17.00;;;4.40;;
42682;SDS011;28293;50.930;3.464;2022-11-24T07:37:04;17.80;;;4.50;;
42682;SDS011;28293;50.930;3.464;2022-11-24T07:39:29;12.65;;;4.25;;
42682;SDS011;28293;50.930;3.464;2022-11-24T07:41:56;21.63;;;4.30;;
42682;SDS011;28293;50.930;3.464;2022-11-24T07:44:23;14.80;;;3.95;;
42682;SDS011;28293;50.930;3.464;2022-11-24T07:46:49;15.60;;;4.25;;
42682;SDS011;28293;50.930;3.464;2022-11-24T07:49:15;18.15;;;4.97;;
42682;SDS011;28293;50.930;3.464;2022-11-24T07:51:41;13.05;;;4.20;;
42682;SDS011;28293;50.930;3.464;2022-11-24T07:54:07;14.77;;;4.82;;
42682;SDS011;28293;50.930;3.464;2022-11-24T07:56:33;15.52;;;4.30;;
42682;SDS011;28293;50.930;3.464;2022-11-24T07:58:58;17.50;;;5.22;;
42682;SDS011;28293;50.930;3.464;2022-11-24T08:01:24;15.63;;;4.32;;
42682;SDS011;28293;50.930;3.464;2022-11-24T08:03:50;13.80;;;4.68;;
42682;SDS011;28293;50.930;3.464;2022-11-24T08:06:15;17.13;;;4.78;;
42682;SDS011;28293;50.930;3.464;2022-11-24T08:08:42;15.65;;;4.70;;
42682;SDS011;28293;50.930;3.464;2022-11-24T08:11:12;17.45;;;4.53;;
42682;SDS011;28293;50.930;3.464;2022-11-24T08:13:39;14.32;;;4.05;;
42682;SDS011;28293;50.930;3.464;2022-11-24T08:16:05;12.70;;;6.40;;
42682;SDS011;28293;50.930;3.464;2022-11-24T08:18:33;16.38;;;6.20;;
42682;SDS011;28293;50.930;3.464;2022-11-24T08:20:59;18.67;;;6.45;;
42682;SDS011;28293;50.930;3.464;2022-11-24T08:23:26;22.42;;;7.13;;
42682;SDS011;28293;50.930;3.464;2022-11-24T08:25:53;15.35;;;5.05;;
42682;SDS011;28293;50.930;3.464;2022-11-24T08:28:20;16.27;;;5.10;;
42682;SDS011;28293;50.930;3.464;2022-11-24T08:30:46;17.63;;;5.68;;
42682;SDS011;28293;50.930;3.464;2022-11-24T08:33:12;25.08;;;10.25;;
42682;SDS011;28293;50.930;3.464;2022-11-24T08:35:38;16.95;;;6.45;;
42682;SDS011;28293;50.930;3.464;2022-11-24T08:38:03;12.73;;;4.18;;
42682;SDS011;28293;50.930;3.464;2022-11-24T08:40:30;14.57;;;4.78;;
42682;SDS011;28293;50.930;3.464;2022-11-24T08:42:57;18.02;;;5.00;;
42682;SDS011;28293;50.930;3.464;2022-11-24T08:45:26;14.50;;;4.85;;
42682;SDS011;28293;50.930;3.464;2022-11-24T08:47:52;17.23;;;5.20;;
42682;SDS011;28293;50.930;3.464;2022-11-24T08:50:20;17.30;;;5.43;;
42682;SDS011;28293;50.930;3.464;2022-11-24T08:52:46;16.85;;;4.63;;
42682;SDS011;28293;50.930;3.464;2022-11-24T08:55:12;20.15;;;4.65;;
42682;SDS011;28293;50.930;3.464;2022-11-24T08:57:37;14.73;;;4.47;;
42682;SDS011;28293;50.930;3.464;2022-11-24T09:00:04;16.27;;;4.70;;
42682;SDS011;28293;50.930;3.464;2022-11-24T09:02:30;16.73;;;4.55;;
42682;SDS011;28293;50.930;3.464;2022-11-24T09:04:56;17.00;;;5.43;;
42682;SDS011;28293;50.930;3.464;2022-11-24T09:07:22;15.82;;;5.35;;
42682;SDS011;28293;50.930;3.464;2022-11-24T09:09:48;18.75;;;5.25;;
42682;SDS011;28293;50.930;3.464;2022-11-24T09:12:14;17.50;;;4.72;;
42682;SDS011;28293;50.930;3.464;2022-11-24T09:14:40;18.05;;;5.50;;
42682;SDS011;28293;50.930;3.464;2022-11-24T09:17:06;15.15;;;4.97;;
42682;SDS011;28293;50.930;3.464;2022-11-24T09:19:32;13.43;;;4.25;;
42682;SDS011;28293;50.930;3.464;2022-11-24T09:21:58;12.00;;;4.10;;
42682;SDS011;28293;50.930;3.464;2022-11-24T09:24:24;18.20;;;4.90;;
42682;SDS011;28293;50.930;3.464;2022-11-24T09:26:49;19.42;;;4.25;;
42682;SDS011;28293;50.930;3.464;2022-11-24T09:29:17;19.00;;;4.60;;
42682;SDS011;28293;50.930;3.464;2022-11-24T09:31:43;14.40;;;4.97;;
42682;SDS011;28293;50.930;3.464;2022-11-24T09:34:11;19.05;;;7.60;;
42682;SDS011;28293;50.930;3.464;2022-11-24T09:36:38;19.85;;;7.75;;
42682;SDS011;28293;50.930;3.464;2022-11-24T09:39:04;19.35;;;7.43;;
42682;SDS011;28293;50.930;3.464;2022-11-24T09:50:01;17.10;;;5.75;;
42682;SDS011;28293;50.930;3.464;2022-11-24T09:52:52;17.42;;;5.28;;
42682;SDS011;28293;50.930;3.464;2022-11-24T09:58:10;15.35;;;4.90;;
42682;SDS011;28293;50.930;3.464;2022-11-24T10:00:36;15.25;;;5.20;;
42682;SDS011;28293;50.930;3.464;2022-11-24T10:03:03;16.02;;;5.20;;
42682;SDS011;28293;50.930;3.464;2022-11-24T10:05:29;19.08;;;5.00;;
42682;SDS011;28293;50.930;3.464;2022-11-24T10:11:04;14.10;;;4.43;;
42682;SDS011;28293;50.930;3.464;2022-11-24T10:16:43;16.55;;;4.57;;
42682;SDS011;28293;50.930;3.464;2022-11-24T10:25:02;17.75;;;4.70;;
42682;SDS011;28293;50.930;3.464;2022-11-24T10:27:59;16.10;;;4.18;;
42682;SDS011;28293;50.930;3.464;2022-11-24T10:30:27;14.70;;;4.07;;
42682;SDS011;28293;50.930;3.464;2022-11-24T10:33:00;15.85;;;4.57;;
42682;SDS011;28293;50.930;3.464;2022-11-24T10:35:40;15.63;;;4.45;;
42682;SDS011;28293;50.930;3.464;2022-11-24T10:41:11;17.70;;;4.45;;
42682;SDS011;28293;50.930;3.464;2022-11-24T10:43:43;16.50;;;4.15;;
42682;SDS011;28293;50.930;3.464;2022-11-24T10:46:10;18.73;;;4.65;;
42682;SDS011;28293;50.930;3.464;2022-11-24T10:48:42;17.45;;;4.28;;
42682;SDS011;28293;50.930;3.464;2022-11-24T10:51:30;15.73;;;4.25;;
42682;SDS011;28293;50.930;3.464;2022-11-24T10:56:39;16.98;;;3.92;;
42682;SDS011;28293;50.930;3.464;2022-11-24T11:01:50;21.92;;;3.95;;
42682;SDS011;28293;50.930;3.464;2022-11-24T11:04:20;17.23;;;4.18;;
42682;SDS011;28293;50.930;3.464;2022-11-24T11:06:49;18.60;;;4.25;;
42682;SDS011;28293;50.930;3.464;2022-11-24T11:09:16;16.92;;;4.07;;
42682;SDS011;28293;50.930;3.464;2022-11-24T11:11:43;15.50;;;4.78;;
42682;SDS011;28293;50.930;3.464;2022-11-24T11:14:12;16.70;;;4.15;;
42682;SDS011;28293;50.930;3.464;2022-11-24T11:16:52;15.00;;;4.38;;
42682;SDS011;28293;50.930;3.464;2022-11-24T11:24:36;16.40;;;4.88;;
42682;SDS011;28293;50.930;3.464;2022-11-24T11:27:25;21.70;;;6.97;;
42682;SDS011;28293;50.930;3.464;2022-11-24T11:29:50;28.65;;;9.63;;
42682;SDS011;28293;50.930;3.464;2022-11-24T11:32:23;22.85;;;7.22;;
42682;SDS011;28293;50.930;3.464;2022-11-24T11:34:50;27.98;;;8.70;;
42682;SDS011;28293;50.930;3.464;2022-11-24T11:37:18;36.58;;;15.48;;
42682;SDS011;28293;50.930;3.464;2022-11-24T11:39:46;30.45;;;11.60;;
42682;SDS011;28293;50.930;3.464;2022-11-24T11:45:16;18.40;;;6.22;;
42682;SDS011;28293;50.930;3.464;2022-11-24T11:47:52;34.58;;;14.15;;
42682;SDS011;28293;50.930;3.464;2022-11-24T11:50:22;20.73;;;6.57;;
42682;SDS011;28293;50.930;3.464;2022-11-24T12:09:16;19.70;;;4.82;;
42682;SDS011;28293;50.930;3.464;2022-11-24T12:12:14;19.20;;;4.07;;
42682;SDS011;28293;50.930;3.464;2022-11-24T12:23:59;21.05;;;5.32;;
42682;SDS011;28293;50.930;3.464;2022-11-24T12:40:07;17.38;;;4.68;;
42682;SDS011;28293;50.930;3.464;2022-11-24T12:45:42;19.63;;;4.07;;
42682;SDS011;28293;50.930;3.464;2022-11-24T12:48:23;15.25;;;3.60;;
42682;SDS011;28293;50.930;3.464;2022-11-24T12:51:13;22.13;;;4.18;;
42682;SDS011;28293;50.930;3.464;2022-11-24T12:53:45;22.00;;;4.38;;
42682;SDS011;28293;50.930;3.464;2022-11-24T12:56:13;18.48;;;4.22;;
42682;SDS011;28293;50.930;3.464;2022-11-24T13:01:23;16.33;;;4.65;;
42682;SDS011;28293;50.930;3.464;2022-11-24T13:06:40;21.10;;;5.63;;
42682;SDS011;28293;50.930;3.464;2022-11-24T13:09:16;14.52;;;3.83;;
42682;SDS011;28293;50.930;3.464;2022-11-24T13:11:43;17.55;;;4.32;;
42682;SDS011;28293;50.930;3.464;2022-11-24T13:14:29;13.90;;;3.58;;
42682;SDS011;28293;50.930;3.464;2022-11-24T13:16:57;15.68;;;3.42;;
42682;SDS011;28293;50.930;3.464;2022-11-24T13:19:26;20.42;;;5.43;;
42682;SDS011;28293;50.930;3.464;2022-11-24T13:24:32;19.05;;;5.03;;
42682;SDS011;28293;50.930;3.464;2022-11-24T13:29:41;20.10;;;4.30;;
42682;SDS011;28293;50.930;3.464;2022-11-24T13:37:17;18.30;;;4.03;;
42682;SDS011;28293;50.930;3.464;2022-11-24T13:55:57;27.00;;;5.55;;
42682;SDS011;28293;50.930;3.464;2022-11-24T14:03:33;19.77;;;4.55;;
42682;SDS011;28293;50.930;3.464;2022-11-24T14:06:05;21.42;;;5.55;;
42682;SDS011;28293;50.930;3.464;2022-11-24T14:08:38;19.38;;;5.18;;
42682;SDS011;28293;50.930;3.464;2022-11-24T14:11:10;20.60;;;4.68;;
42682;SDS011;28293;50.930;3.464;2022-11-24T14:13:38;24.63;;;5.15;;
42682;SDS011;28293;50.930;3.464;2022-11-24T14:18:33;19.75;;;5.05;;
42682;SDS011;28293;50.930;3.464;2022-11-24T14:23:44;23.55;;;4.82;;
42682;SDS011;28293;50.930;3.464;2022-11-24T14:26:19;22.48;;;4.63;;
42682;SDS011;28293;50.930;3.464;2022-11-24T14:29:13;19.85;;;5.38;;
42682;SDS011;28293;50.930;3.464;2022-11-24T14:31:41;23.00;;;4.90;;
42682;SDS011;28293;50.930;3.464;2022-11-24T14:34:16;26.92;;;4.53;;
42682;SDS011;28293;50.930;3.464;2022-11-24T14:36:45;20.70;;;4.55;;
42682;SDS011;28293;50.930;3.464;2022-11-24T14:39:12;20.70;;;4.45;;
42682;SDS011;28293;50.930;3.464;2022-11-24T14:41:40;27.42;;;5.85;;
42682;SDS011;28293;50.930;3.464;2022-11-24T14:44:19;24.50;;;5.60;;
42682;SDS011;28293;50.930;3.464;2022-11-24T14:47:33;20.73;;;4.68;;
42682;SDS011;28293;50.930;3.464;2022-11-24T14:52:42;21.33;;;5.00;;
42682;SDS011;28293;50.930;3.464;2022-11-24T14:55:31;19.63;;;5.30;;
42682;SDS011;28293;50.930;3.464;2022-11-24T14:57:59;24.00;;;5.82;;
42682;SDS011;28293;50.930;3.464;2022-11-24T15:00:31;23.52;;;4.93;;
42682;SDS011;28293;50.930;3.464;2022-11-24T15:06:13;22.67;;;4.80;;
42682;SDS011;28293;50.930;3.464;2022-11-24T15:08:25;23.90;;;4.88;;
42682;SDS011;28293;50.930;3.464;2022-11-24T15:10:59;25.35;;;5.68;;
42682;SDS011;28293;50.930;3.464;2022-11-24T15:13:26;21.08;;;4.72;;
42682;SDS011;28293;50.930;3.464;2022-11-24T15:15:56;23.27;;;5.82;;
42682;SDS011;28293;50.930;3.464;2022-11-24T15:18:25;19.15;;;4.20;;
42682;SDS011;28293;50.930;3.464;2022-11-24T15:20:56;28.80;;;6.05;;
42682;SDS011;28293;50.930;3.464;2022-11-24T15:23:24;27.00;;;5.47;;
42682;SDS011;28293;50.930;3.464;2022-11-24T15:25:54;23.75;;;5.13;;
42682;SDS011;28293;50.930;3.464;2022-11-24T15:28:22;24.45;;;5.40;;
42682;SDS011;28293;50.930;3.464;2022-11-24T15:30:51;19.67;;;5.00;;
42682;SDS011;28293;50.930;3.464;2022-11-24T15:33:21;26.20;;;6.18;;
42682;SDS011;28293;50.930;3.464;2022-11-24T15:35:47;28.83;;;6.25;;
42682;SDS011;28293;50.930;3.464;2022-11-24T15:38:13;21.02;;;5.40;;
42682;SDS011;28293;50.930;3.464;2022-11-24T15:40:40;22.67;;;4.95;;
42682;SDS011;28293;50.930;3.464;2022-11-24T15:45:39;19.48;;;4.95;;
42682;SDS011;28293;50.930;3.464;2022-11-24T15:48:05;20.45;;;4.63;;
42682;SDS011;28293;50.930;3.464;2022-11-24T15:50:30;19.92;;;5.15;;
42682;SDS011;28293;50.930;3.464;2022-11-24T15:52:56;20.45;;;5.75;;
42682;SDS011;28293;50.930;3.464;2022-11-24T15:55:22;21.15;;;5.05;;
42682;SDS011;28293;50.930;3.464;2022-11-24T15:57:47;25.38;;;5.75;;
42682;SDS011;28293;50.930;3.464;2022-11-24T16:00:17;19.80;;;5.03;;
42682;SDS011;28293;50.930;3.464;2022-11-24T16:02:45;24.05;;;5.28;;
42682;SDS011;28293;50.930;3.464;2022-11-24T16:05:11;17.73;;;4.78;;
42682;SDS011;28293;50.930;3.464;2022-11-24T16:07:37;24.75;;;6.43;;
42682;SDS011;28293;50.930;3.464;2022-11-24T16:10:04;24.42;;;5.30;;
42682;SDS011;28293;50.930;3.464;2022-11-24T16:12:31;26.35;;;5.85;;
42682;SDS011;28293;50.930;3.464;2022-11-24T16:14:57;18.98;;;6.07;;
42682;SDS011;28293;50.930;3.464;2022-11-24T16:17:22;23.15;;;5.43;;
42682;SDS011;28293;50.930;3.464;2022-11-24T16:19:48;27.35;;;6.82;;
42682;SDS011;28293;50.930;3.464;2022-11-24T16:22:13;22.67;;;5.93;;
42682;SDS011;28293;50.930;3.464;2022-11-24T16:24:39;20.77;;;5.90;;
42682;SDS011;28293;50.930;3.464;2022-11-24T16:27:05;26.85;;;6.60;;
42682;SDS011;28293;50.930;3.464;2022-11-24T16:29:30;18.05;;;5.63;;
42682;SDS011;28293;50.930;3.464;2022-11-24T16:31:56;19.08;;;5.88;;
42682;SDS011;28293;50.930;3.464;2022-11-24T16:34:21;20.67;;;5.10;;
42682;SDS011;28293;50.930;3.464;2022-11-24T16:36:47;17.20;;;5.82;;
42682;SDS011;28293;50.930;3.464;2022-11-24T16:39:13;20.70;;;6.03;;
42682;SDS011;28293;50.930;3.464;2022-11-24T16:41:38;20.50;;;5.57;;
42682;SDS011;28293;50.930;3.464;2022-11-24T16:44:04;24.80;;;7.10;;
42682;SDS011;28293;50.930;3.464;2022-11-24T16:46:30;29.52;;;7.63;;
42682;SDS011;28293;50.930;3.464;2022-11-24T16:48:56;22.63;;;6.28;;
42682;SDS011;28293;50.930;3.464;2022-11-24T16:51:27;21.08;;;5.47;;
42682;SDS011;28293;50.930;3.464;2022-11-24T16:53:57;22.15;;;6.03;;
42682;SDS011;28293;50.930;3.464;2022-11-24T16:56:25;21.45;;;6.40;;
42682;SDS011;28293;50.930;3.464;2022-11-24T16:58:51;24.88;;;5.70;;